Time;durP1;ratioP1;P1;durP2;ratioP2;P2;SDS_P1;SDS_P2;PMS_P1;PMS_P2;Temp;Humidity;BMP_temperature;BMP_pressure;BME280_temperature;BME280_humidity;BME280_pressure;Samples;Min_cycle;Max_cycle;Signal;HPM_P1;HPM_P2
2021/03/26 00:01:17;;;;;;;4.63;2.42;;;21.20;36.50;;;;;;5094012;28;20058;-61
2021/03/26 00:03:44;;;;;;;3.92;1.90;;;21.20;36.50;;;;;;5093489;28;20032;-62
2021/03/26 00:06:14;;;;;;;3.60;1.67;;;21.20;36.40;;;;;;5093875;28;20491;-61
2021/03/26 00:08:41;;;;;;;4.28;2.17;;;21.20;36.50;;;;;;5093864;28;20031;-62
2021/03/26 00:11:08;;;;;;;5.43;1.90;;;21.20;36.50;;;;;;5093762;28;20349;-62
2021/03/26 00:13:34;;;;;;;4.78;2.13;;;21.20;36.50;;;;;;5093806;28;20113;-62
2021/03/26 00:16:00;;;;;;;4.95;2.05;;;21.20;36.50;;;;;;5092505;28;20028;-62
2021/03/26 00:18:25;;;;;;;5.75;2.45;;;21.20;36.50;;;;;;5093694;28;20020;-62
2021/03/26 00:20:51;;;;;;;5.72;2.25;;;21.20;36.50;;;;;;5093425;28;20048;-62
2021/03/26 00:23:17;;;;;;;5.30;2.60;;;21.20;36.50;;;;;;5093486;28;20024;-62
2021/03/26 00:25:43;;;;;;;4.50;2.22;;;21.20;36.50;;;;;;5093578;28;20020;-62
2021/03/26 00:28:08;;;;;;;4.65;2.53;;;21.20;36.50;;;;;;5093459;28;20032;-62
2021/03/26 00:30:34;;;;;;;4.57;2.30;;;21.10;36.50;;;;;;5093467;28;20032;-62
2021/03/26 00:33:01;;;;;;;4.72;2.28;;;21.20;36.50;;;;;;5093437;28;20046;-62
2021/03/26 00:35:28;;;;;;;4.82;2.53;;;21.10;36.50;;;;;;5093379;28;20028;-62
2021/03/26 00:37:54;;;;;;;7.30;2.40;;;21.10;36.50;;;;;;5093357;28;20024;-62
2021/03/26 00:40:21;;;;;;;7.93;2.70;;;21.10;36.50;;;;;;5093616;28;20028;-62
2021/03/26 00:42:47;;;;;;;3.92;2.15;;;21.10;36.50;;;;;;5093305;28;20036;-62
2021/03/26 00:45:16;;;;;;;4.90;2.30;;;21.10;36.50;;;;;;5093230;28;20161;-62
2021/03/26 00:47:42;;;;;;;4.57;2.40;;;21.10;36.60;;;;;;5093141;28;20032;-62
2021/03/26 00:50:29;;;;;;;4.70;2.22;;;21.10;36.60;;;;;;5093185;28;20035;-62
2021/03/26 00:52:56;;;;;;;5.65;2.60;;;21.10;36.60;;;;;;5093200;28;20024;-62
2021/03/26 00:55:22;;;;;;;5.03;2.90;;;21.10;36.50;;;;;;5091907;28;20036;-62
2021/03/26 00:57:47;;;;;;;5.25;2.45;;;21.10;36.60;;;;;;5093084;28;20395;-62
2021/03/26 01:00:18;;;;;;;5.45;2.92;;;21.10;36.60;;;;;;5093041;28;20441;-62
2021/03/26 01:02:44;;;;;;;5.53;2.65;;;21.10;36.60;;;;;;5092812;28;20051;-63
2021/03/26 01:05:18;;;;;;;5.70;2.80;;;21.10;36.60;;;;;;5092894;28;20480;-62
2021/03/26 01:07:45;;;;;;;5.80;3.03;;;21.10;36.60;;;;;;5093059;28;20024;-62
2021/03/26 01:10:13;;;;;;;6.75;3.22;;;21.10;36.50;;;;;;5092948;28;20024;-62
2021/03/26 01:12:39;;;;;;;4.70;2.42;;;21.10;36.60;;;;;;5092912;28;20028;-62
2021/03/26 01:15:09;;;;;;;5.72;3.08;;;21.00;36.60;;;;;;5092743;28;20021;-62
2021/03/26 01:17:35;;;;;;;5.75;3.10;;;21.00;36.60;;;;;;5092844;28;20051;-62
2021/03/26 01:20:01;;;;;;;5.10;2.75;;;21.00;36.60;;;;;;5092602;28;20043;-62
2021/03/26 01:22:26;;;;;;;5.10;2.88;;;21.00;36.60;;;;;;5092796;28;20023;-62
2021/03/26 01:24:52;;;;;;;5.07;2.60;;;21.00;36.60;;;;;;5092758;28;20036;-62
2021/03/26 01:27:18;;;;;;;5.30;3.13;;;21.00;36.60;;;;;;5092798;28;20020;-62
2021/03/26 01:29:43;;;;;;;5.68;2.70;;;21.00;36.60;;;;;;5092723;28;20047;-62
2021/03/26 01:32:09;;;;;;;5.15;2.92;;;21.00;36.60;;;;;;5091481;28;20020;-62
2021/03/26 01:34:35;;;;;;;6.55;3.05;;;21.00;36.60;;;;;;5092648;28;20020;-62
2021/03/26 01:37:01;;;;;;;7.60;3.58;;;21.00;36.60;;;;;;5092635;28;20076;-62
2021/03/26 01:39:26;;;;;;;5.53;2.72;;;21.00;36.60;;;;;;5092684;28;20020;-62
2021/03/26 01:41:52;;;;;;;5.63;2.85;;;21.00;36.60;;;;;;5092622;28;20024;-62
2021/03/26 01:44:20;;;;;;;6.47;3.38;;;21.00;36.60;;;;;;5092472;28;20035;-62
2021/03/26 01:46:47;;;;;;;5.90;3.08;;;21.00;36.60;;;;;;5091294;28;20107;-62
2021/03/26 01:49:13;;;;;;;5.45;3.05;;;21.00;36.60;;;;;;5092547;28;20103;-62
2021/03/26 01:51:45;;;;;;;6.60;3.50;;;21.00;36.60;;;;;;5092542;28;20107;-62
2021/03/26 01:54:15;;;;;;;5.97;3.17;;;21.00;36.60;;;;;;5092523;28;20032;-62
2021/03/26 01:56:41;;;;;;;6.30;3.13;;;21.00;36.70;;;;;;5092598;28;20020;-62
2021/03/26 01:59:07;;;;;;;6.47;3.40;;;21.00;36.70;;;;;;5092435;28;20024;-61
2021/03/26 02:01:41;;;;;;;5.32;2.53;;;21.00;36.70;;;;;;5092382;28;20498;-62
2021/03/26 02:04:08;;;;;;;5.72;3.03;;;21.00;36.60;;;;;;5092311;28;20395;-62
2021/03/26 02:06:42;;;;;;;5.68;2.90;;;21.00;36.70;;;;;;5092417;28;20095;-62
2021/03/26 02:09:28;;;;;;;6.65;3.28;;;20.90;36.70;;;;;;5092502;28;20111;-62
2021/03/26 02:12:27;;;;;;;6.60;3.22;;;21.00;36.70;;;;;;5092361;28;20020;-62
2021/03/26 02:15:01;;;;;;;7.25;3.25;;;20.90;36.70;;;;;;5088351;28;20064;-62
2021/03/26 02:17:28;;;;;;;;;;;20.90;36.70;;;;;;5093110;28;20077;-62
2021/03/26 02:20:26;;;;;;;7.40;3.67;;;20.90;36.70;;;;;;5091933;28;19914;-62
2021/03/26 02:22:56;;;;;;;8.57;3.65;;;20.90;36.70;;;;;;5090245;28;20036;-62
2021/03/26 02:25:24;;;;;;;6.57;3.25;;;20.90;36.70;;;;;;5092211;28;20458;-63
2021/03/26 02:27:50;;;;;;;5.70;3.10;;;20.90;36.70;;;;;;5095347;28;20031;-62
2021/03/26 02:30:21;;;;;;;6.20;3.30;;;20.90;36.70;;;;;;5096257;28;20043;-62
2021/03/26 02:32:47;;;;;;;6.85;3.20;;;20.90;36.70;;;;;;5096054;28;20028;-62
2021/03/26 02:35:18;;;;;;;5.07;2.95;;;20.90;36.70;;;;;;5094422;28;20024;-62
2021/03/26 02:37:47;;;;;;;6.28;3.22;;;20.90;36.70;;;;;;5095671;28;20020;-62
2021/03/26 02:40:28;;;;;;;6.00;3.15;;;20.90;36.70;;;;;;5095629;28;20024;-62
2021/03/26 02:43:04;;;;;;;4.85;2.70;;;20.80;36.70;;;;;;5095454;28;20024;-62
2021/03/26 02:45:38;;;;;;;7.78;3.35;;;20.90;36.70;;;;;;5095482;28;20522;-62
2021/03/26 02:48:19;;;;;;;6.57;2.90;;;20.80;36.70;;;;;;5094250;28;20024;-62
2021/03/26 02:50:52;;;;;;;5.40;2.78;;;20.90;36.70;;;;;;5095491;28;20093;-62
2021/03/26 02:53:40;;;;;;;5.63;2.90;;;20.80;36.70;;;;;;5095359;28;20024;-62
2021/03/26 02:56:20;;;;;;;6.07;3.17;;;20.90;36.70;;;;;;5094940;28;20032;-62
2021/03/26 02:58:52;;;;;;;7.20;3.53;;;20.80;36.70;;;;;;5094042;28;20031;-62
2021/03/26 03:01:29;;;;;;;7.10;4.05;;;20.80;36.70;;;;;;5095259;28;20024;-62
2021/03/26 03:04:00;;;;;;;5.95;3.00;;;20.80;36.70;;;;;;5095142;28;20115;-62
2021/03/26 03:06:32;;;;;;;7.25;3.33;;;20.80;36.70;;;;;;5095198;28;20039;-61
2021/03/26 03:08:58;;;;;;;6.35;3.45;;;20.80;36.70;;;;;;5095162;28;20035;-62
2021/03/26 03:11:32;;;;;;;4.85;2.67;;;20.80;36.70;;;;;;5095070;28;20468;-62
2021/03/26 03:14:00;;;;;;;5.90;3.10;;;20.80;36.70;;;;;;5094980;28;20082;-62
2021/03/26 03:16:48;;;;;;;6.50;3.30;;;20.80;36.70;;;;;;5094952;28;20031;-62
2021/03/26 03:19:30;;;;;;;6.00;3.25;;;20.80;36.70;;;;;;5094953;28;20020;-62
2021/03/26 03:22:02;;;;;;;5.78;3.20;;;20.80;36.70;;;;;;5094891;28;20036;-62
2021/03/26 03:24:42;;;;;;;4.55;2.80;;;20.80;36.70;;;;;;5094800;28;20043;-62
2021/03/26 03:27:14;;;;;;;8.95;3.67;;;20.80;36.70;;;;;;5094779;28;20020;-62
2021/03/26 03:29:54;;;;;;;5.60;3.10;;;20.80;36.80;;;;;;5094723;28;20024;-62
2021/03/26 03:32:40;;;;;;;5.95;3.30;;;20.80;36.80;;;;;;5094605;28;20021;-62
2021/03/26 03:35:13;;;;;;;6.68;3.50;;;20.70;36.80;;;;;;5109537;28;20036;-62
2021/03/26 03:37:56;;;;;;;6.45;3.35;;;20.70;36.70;;;;;;5093751;28;20074;-62
2021/03/26 03:40:29;;;;;;;5.45;3.03;;;20.70;36.80;;;;;;5094530;28;20062;-62
2021/03/26 03:43:38;;;;;;;6.13;3.13;;;20.70;36.70;;;;;;5094355;28;20036;-62
2021/03/26 03:46:20;;;;;;;5.43;2.60;;;20.70;36.70;;;;;;5031985;28;20037;-62
2021/03/26 03:48:55;;;;;;;6.65;3.40;;;20.70;36.70;;;;;;5032025;28;20018;-62
2021/03/26 03:51:25;;;;;;;6.28;3.10;;;20.70;36.80;;;;;;5074095;28;20047;-62
2021/03/26 03:54:00;;;;;;;5.35;2.92;;;20.70;36.70;;;;;;5094236;28;20085;-62
2021/03/26 03:56:36;;;;;;;6.03;3.03;;;20.70;36.80;;;;;;5094201;28;20034;-61
2021/03/26 03:59:25;;;;;;;6.28;2.80;;;20.70;36.80;;;;;;5093817;28;20031;-62
2021/03/26 04:02:17;;;;;;;6.57;3.20;;;20.70;36.80;;;;;;5094051;28;20018;-62
2021/03/26 04:04:48;;;;;;;5.43;2.80;;;20.70;36.80;;;;;;5093974;28;20121;-62
2021/03/26 04:07:19;;;;;;;6.15;3.03;;;20.70;36.80;;;;;;5093994;28;20522;-62
2021/03/26 04:09:49;;;;;;;5.45;2.67;;;20.70;36.80;;;;;;5093986;28;20032;-62
2021/03/26 04:12:23;;;;;;;5.63;2.97;;;20.70;36.80;;;;;;5093951;28;20536;-62
2021/03/26 04:15:08;;;;;;;6.03;3.30;;;20.70;36.80;;;;;;5093843;28;20433;-62
2021/03/26 04:18:00;;;;;;;7.70;3.47;;;20.70;36.70;;;;;;5093832;28;20107;-62
2021/03/26 04:20:36;;;;;;;5.07;2.92;;;20.70;36.80;;;;;;5093534;28;20046;-62
2021/03/26 04:23:17;;;;;;;7.20;3.10;;;20.70;36.80;;;;;;5093612;28;20032;-62
2021/03/26 04:25:50;;;;;;;6.68;3.38;;;20.70;36.80;;;;;;5093619;28;20031;-62
2021/03/26 04:28:22;;;;;;;5.18;2.70;;;20.60;36.80;;;;;;5094160;28;20036;-62
2021/03/26 04:30:54;;;;;;;6.90;3.15;;;20.60;36.80;;;;;;5093539;28;20035;-62
2021/03/26 04:33:21;;;;;;;6.80;3.25;;;20.60;36.80;;;;;;5093453;28;20031;-62
2021/03/26 04:35:49;;;;;;;6.03;3.03;;;20.60;36.80;;;;;;5093405;28;20024;-62
2021/03/26 04:38:29;;;;;;;5.35;2.85;;;20.70;36.80;;;;;;5093395;28;20024;-62
2021/03/26 04:41:01;;;;;;;5.60;3.05;;;20.60;36.80;;;;;;5093347;28;20020;-62
2021/03/26 04:43:55;;;;;;;5.50;2.95;;;20.60;36.80;;;;;;5093186;28;20020;-62
2021/03/26 04:46:44;;;;;;;5.43;2.72;;;20.60;36.80;;;;;;5093342;28;20081;-62
2021/03/26 04:49:21;;;;;;;5.65;2.97;;;20.60;36.70;;;;;;5092889;28;20024;-62
2021/03/26 04:51:57;;;;;;;7.15;3.40;;;20.60;36.80;;;;;;5091980;28;20024;-62
2021/03/26 04:54:28;;;;;;;6.50;3.08;;;20.60;36.80;;;;;;5093164;28;20024;-62
2021/03/26 04:57:00;;;;;;;5.32;2.60;;;20.60;36.80;;;;;;5093110;28;20023;-62
2021/03/26 04:59:38;;;;;;;5.93;2.88;;;20.60;36.80;;;;;;5093162;28;20479;-62
2021/03/26 05:02:08;;;;;;;6.68;2.65;;;20.60;36.80;;;;;;5093109;28;20024;-62
2021/03/26 05:04:38;;;;;;;5.95;2.80;;;20.60;36.80;;;;;;5091654;28;20032;-62
2021/03/26 05:07:10;;;;;;;5.43;2.80;;;20.50;36.80;;;;;;5092889;28;20108;-62
2021/03/26 05:09:40;;;;;;;6.05;3.00;;;20.60;36.80;;;;;;5092999;28;20221;-62
2021/03/26 05:12:19;;;;;;;5.65;3.00;;;20.60;36.80;;;;;;5092812;28;20050;-62
2021/03/26 05:15:08;;;;;;;6.22;2.90;;;20.60;36.80;;;;;;5092961;28;20073;-62
2021/03/26 05:17:46;;;;;;;5.68;2.75;;;20.60;36.70;;;;;;5093116;28;20371;-62
2021/03/26 05:20:21;;;;;;;5.90;3.00;;;20.60;36.70;;;;;;5092711;28;20048;-62
2021/03/26 05:23:02;;;;;;;5.78;2.90;;;20.60;36.70;;;;;;5092682;28;20457;-62
2021/03/26 05:25:35;;;;;;;5.82;2.75;;;20.70;36.70;;;;;;5092876;28;20024;-62
2021/03/26 05:28:02;;;;;;;7.03;2.80;;;20.70;36.70;;;;;;5092806;28;20113;-62
2021/03/26 05:30:37;;;;;;;5.43;3.13;;;20.70;36.70;;;;;;5092745;28;20097;-62
2021/03/26 05:33:20;;;;;;;6.47;2.80;;;20.80;36.60;;;;;;5091468;28;20024;-62
2021/03/26 05:35:54;;;;;;;5.78;3.08;;;20.80;36.60;;;;;;5092770;28;20055;-62
2021/03/26 05:38:26;;;;;;;5.43;2.80;;;20.80;36.60;;;;;;5091443;28;20471;-62
2021/03/26 05:41:07;;;;;;;5.50;2.63;;;20.80;36.60;;;;;;5091506;28;20568;-62
2021/03/26 05:43:57;;;;;;;4.97;2.45;;;20.90;36.60;;;;;;5092597;28;20036;-62
2021/03/26 05:46:30;;;;;;;6.80;2.83;;;20.80;36.50;;;;;;5092625;28;20046;-62
2021/03/26 05:49:07;;;;;;;5.35;2.75;;;20.90;36.60;;;;;;5092555;28;20107;-62
2021/03/26 05:51:51;;;;;;;5.65;3.17;;;20.90;36.50;;;;;;5092517;28;20091;-62
2021/03/26 05:54:26;;;;;;;5.72;2.75;;;20.90;36.50;;;;;;5092572;28;20107;-62
2021/03/26 05:57:29;;;;;;;5.32;2.60;;;21.00;36.50;;;;;;5091234;28;20499;-62
2021/03/26 06:00:23;;;;;;;6.03;2.75;;;21.00;36.50;;;;;;5092439;28;20102;-61
2021/03/26 06:03:22;;;;;;;4.72;2.90;;;21.00;36.50;;;;;;5095706;28;20077;-62
2021/03/26 06:06:23;;;;;;;5.85;2.65;;;21.00;36.50;;;;;;5094965;28;20077;-62
2021/03/26 06:09:26;;;;;;;7.05;2.63;;;21.00;36.50;;;;;;5041120;28;20044;-62
2021/03/26 06:12:21;;;;;;;5.60;2.42;;;21.00;36.50;;;;;;5096022;28;20031;-62
2021/03/26 06:14:52;;;;;;;;;;;21.00;36.40;;;;;;5082894;28;20047;-62
2021/03/26 06:17:52;;;;;;;4.85;2.65;;;21.00;36.40;;;;;;5095945;28;19911;-61
2021/03/26 06:20:45;;;;;;;3.72;2.15;;;21.10;36.50;;;;;;5095730;28;20040;-62
2021/03/26 06:23:47;;;;;;;5.65;2.38;;;21.10;36.40;;;;;;5095915;28;20537;-62
2021/03/26 06:26:51;;;;;;;5.65;2.70;;;21.10;36.40;;;;;;5095829;28;20023;-62
2021/03/26 06:29:19;;;;;;;4.15;2.10;;;21.10;36.40;;;;;;5095890;28;20085;-62
2021/03/26 06:32:22;;;;;;;4.40;2.25;;;21.10;36.40;;;;;;5095801;28;20028;-61
2021/03/26 06:34:59;;;;;;;4.95;2.58;;;21.20;36.40;;;;;;5094479;28;20077;-61
2021/03/26 06:37:28;;;;;;;5.13;2.45;;;21.20;36.40;;;;;;5095656;28;20017;-61
2021/03/26 06:40:17;;;;;;;5.50;2.70;;;21.20;36.40;;;;;;5095633;28;20038;-61
2021/03/26 06:43:02;;;;;;;6.53;2.60;;;21.10;36.40;;;;;;5095491;28;20035;-61
2021/03/26 06:45:34;;;;;;;;;;;21.20;36.40;;;;;;5096066;28;20028;-61
2021/03/26 06:48:14;;;;;;;4.13;2.30;;;21.20;36.40;;;;;;5095387;28;20369;-61
2021/03/26 06:51:11;;;;;;;5.10;2.40;;;21.20;36.30;;;;;;5094041;28;20477;-61
2021/03/26 06:53:59;;;;;;;5.07;2.45;;;21.20;36.40;;;;;;5095405;28;20535;-60
2021/03/26 06:56:49;;;;;;;7.10;2.85;;;21.20;36.30;;;;;;5095334;28;20380;-61
2021/03/26 06:59:28;;;;;;;5.32;2.28;;;21.30;36.40;;;;;;5095256;28;20039;-61
2021/03/26 07:02:15;;;;;;;4.63;2.50;;;21.20;36.40;;;;;;5093973;28;20039;-61
2021/03/26 07:05:08;;;;;;;5.15;2.67;;;21.30;36.30;;;;;;5095121;28;20093;-62
2021/03/26 07:08:06;;;;;;;5.22;2.53;;;21.30;36.30;;;;;;5093853;28;20026;-61
2021/03/26 07:10:51;;;;;;;4.30;2.15;;;21.40;36.30;;;;;;5095015;28;20059;-61
2021/03/26 07:14:11;;;;;;;6.40;2.72;;;21.30;36.20;;;;;;5094780;28;20483;-61
2021/03/26 07:16:56;;;;;;;6.00;2.25;;;21.40;36.30;;;;;;5032639;28;20071;-62
2021/03/26 07:19:47;;;;;;;3.95;1.95;;;21.40;36.30;;;;;;5094921;28;20113;-61
2021/03/26 07:22:24;;;;;;;5.05;2.40;;;21.40;36.20;;;;;;5094777;28;20044;-61
2021/03/26 07:25:14;;;;;;;4.65;2.20;;;21.50;36.20;;;;;;5094792;28;20387;-62
2021/03/26 07:28:29;;;;;;;6.00;2.50;;;21.50;36.20;;;;;;5094862;28;20027;-61
2021/03/26 07:31:03;;;;;;;;;;;21.50;36.20;;;;;;5090303;28;20036;-61
2021/03/26 07:33:34;;;;;;;5.10;2.08;;;21.50;36.10;;;;;;5094636;28;19904;-61
2021/03/26 07:36:09;;;;;;;4.78;2.08;;;21.50;36.10;;;;;;5094523;28;20024;-61
2021/03/26 07:38:39;;;;;;;5.45;2.30;;;21.50;36.10;;;;;;5094443;28;20054;-61
2021/03/26 07:41:29;;;;;;;5.70;2.03;;;21.50;36.10;;;;;;5094412;28;20539;-61
2021/03/26 07:43:55;;;;;;;4.53;2.22;;;21.60;36.10;;;;;;5094315;28;20032;-61
2021/03/26 07:46:56;;;;;;;5.13;2.25;;;21.50;36.10;;;;;;5094357;28;20073;-61
2021/03/26 07:49:32;;;;;;;5.30;2.28;;;21.60;36.10;;;;;;5094279;28;20499;-62
2021/03/26 07:52:33;;;;;;;4.63;2.10;;;21.60;36.00;;;;;;5094129;28;20032;-62
2021/03/26 07:55:20;;;;;;;6.20;2.15;;;21.60;36.00;;;;;;5094253;28;20418;-62
2021/03/26 07:58:08;;;;;;;4.97;2.08;;;21.70;36.00;;;;;;5094079;28;20106;-62
2021/03/26 08:00:55;;;;;;;4.32;2.10;;;21.70;36.00;;;;;;5063660;28;20047;-62
2021/03/26 08:03:50;;;;;;;4.82;2.60;;;21.70;36.00;;;;;;5094007;28;20096;-61
2021/03/26 08:06:33;;;;;;;4.43;2.15;;;21.70;36.00;;;;;;5093894;28;20020;-61
2021/03/26 08:09:18;;;;;;;5.28;2.40;;;21.70;36.00;;;;;;5093854;28;20024;-61
2021/03/26 08:11:50;;;;;;;;;;;21.70;36.00;;;;;;5094386;28;20016;-62
2021/03/26 08:14:24;;;;;;;4.05;2.08;;;21.70;36.00;;;;;;5093794;28;19918;-63
2021/03/26 08:17:06;;;;;;;3.67;1.85;;;21.80;36.00;;;;;;5093778;28;20031;-62
2021/03/26 08:19:43;;;;;;;4.95;2.10;;;21.70;36.00;;;;;;5093774;28;20043;-60
2021/03/26 08:22:22;;;;;;;5.97;2.10;;;21.70;36.00;;;;;;5093737;28;20032;-62
2021/03/26 08:25:20;;;;;;;3.83;2.10;;;21.70;36.00;;;;;;5091453;28;20040;-62
2021/03/26 08:27:58;;;;;;;4.78;2.20;;;21.70;36.00;;;;;;5092230;28;20111;-61
2021/03/26 08:30:36;;;;;;;4.43;2.30;;;21.80;36.00;;;;;;5093226;28;20024;-61
2021/03/26 08:33:34;;;;;;;4.95;2.30;;;21.80;36.00;;;;;;5091976;28;20031;-62
2021/03/26 08:36:14;;;;;;;5.63;2.30;;;21.80;36.00;;;;;;5091998;28;20020;-62
2021/03/26 08:39:17;;;;;;;4.10;2.00;;;21.80;35.90;;;;;;5093345;28;20047;-62
2021/03/26 08:42:11;;;;;;;3.95;2.08;;;21.80;35.90;;;;;;5093272;28;20027;-63
2021/03/26 08:44:37;;;;;;;4.88;1.88;;;21.80;35.90;;;;;;5092523;28;20040;-62
2021/03/26 08:47:09;;;;;;;4.55;2.20;;;21.80;35.90;;;;;;5093163;28;20066;-61
2021/03/26 08:50:03;;;;;;;5.20;2.28;;;21.90;36.00;;;;;;5091705;28;20020;-62
2021/03/26 08:53:06;;;;;;;4.28;2.08;;;21.80;36.00;;;;;;5093101;28;20020;-62
2021/03/26 08:55:41;;;;;;;4.03;1.88;;;21.90;36.00;;;;;;5058732;28;20066;-61
2021/03/26 08:58:15;;;;;;;;;;;21.90;35.90;;;;;;5093528;28;20030;-62
2021/03/26 09:01:08;;;;;;;4.85;2.17;;;21.90;35.90;;;;;;5093149;28;19927;-61
2021/03/26 09:03:58;;;;;;;3.63;1.83;;;21.90;36.00;;;;;;5092933;28;20034;-61
2021/03/26 09:06:35;;;;;;;4.00;2.05;;;21.90;36.00;;;;;;5093218;28;20024;-62
2021/03/26 09:09:09;;;;;;;4.75;2.53;;;21.80;35.90;;;;;;5091791;28;20531;-62
2021/03/26 09:12:05;;;;;;;4.85;2.08;;;21.90;35.90;;;;;;5091624;28;20540;-62
2021/03/26 09:14:55;;;;;;;6.60;2.22;;;21.90;35.90;;;;;;5093202;28;20138;-63
2021/03/26 09:17:35;;;;;;;5.25;2.00;;;21.90;35.90;;;;;;5093066;28;20023;-65
2021/03/26 09:20:07;;;;;;;4.50;2.08;;;21.90;35.90;;;;;;5074679;28;20072;-62
2021/03/26 09:22:51;;;;;;;3.97;1.88;;;22.00;35.90;;;;;;5093066;28;20028;-62
2021/03/26 09:25:23;;;;;;;4.72;2.05;;;22.00;35.90;;;;;;5092887;28;20028;-62
2021/03/26 09:27:54;;;;;;;4.18;2.10;;;22.00;35.90;;;;;;5092939;28;20020;-61
2021/03/26 09:30:54;;;;;;;3.65;1.50;;;22.00;35.90;;;;;;5092878;28;20040;-62
2021/03/26 09:33:20;;;;;;;3.83;1.80;;;22.00;35.90;;;;;;5092668;28;20021;-62
2021/03/26 09:35:56;;;;;;;5.50;2.08;;;22.00;35.90;;;;;;5094493;28;20036;-61
2021/03/26 09:38:27;;;;;;;3.03;1.77;;;22.00;35.90;;;;;;5096946;28;20023;-61
2021/03/26 09:41:02;;;;;;;3.78;1.90;;;22.00;35.90;;;;;;5095557;28;20027;-62
2021/03/26 09:43:33;;;;;;;4.60;1.95;;;22.00;35.80;;;;;;5096875;28;20028;-61
2021/03/26 09:45:59;;;;;;;4.00;1.80;;;22.00;35.80;;;;;;5096785;28;20099;-61
2021/03/26 09:48:53;;;;;;;3.42;1.73;;;22.00;35.80;;;;;;5096730;28;20100;-63
2021/03/26 09:51:37;;;;;;;3.42;1.73;;;22.00;35.80;;;;;;5095255;28;20020;-62
2021/03/26 09:54:25;;;;;;;3.88;1.60;;;22.00;35.80;;;;;;5096682;28;20545;-62
2021/03/26 09:57:02;;;;;;;3.88;1.80;;;22.00;35.80;;;;;;5096694;28;20074;-62
2021/03/26 10:00:00;;;;;;;3.50;1.70;;;22.00;35.70;;;;;;5096538;28;20069;-62
2021/03/26 10:02:57;;;;;;;4.38;1.67;;;22.10;35.70;;;;;;5097367;28;20429;-61
2021/03/26 10:05:38;;;;;;;3.92;1.73;;;22.10;35.70;;;;;;5097469;28;20077;-62
2021/03/26 10:08:36;;;;;;;4.20;2.00;;;22.10;35.70;;;;;;5097350;28;20072;-62
2021/03/26 10:11:11;;;;;;;3.58;1.70;;;22.20;35.60;;;;;;5097271;28;20032;-63
2021/03/26 10:13:54;;;;;;;3.60;1.83;;;22.20;35.70;;;;;;5097281;28;20424;-63
2021/03/26 10:16:47;;;;;;;3.40;1.70;;;22.10;35.60;;;;;;5105084;28;20368;-62
2021/03/26 10:19:22;;;;;;;4.95;2.10;;;22.20;35.60;;;;;;5074415;28;20437;-62
2021/03/26 10:21:55;;;;;;;3.25;1.65;;;22.20;35.60;;;;;;5097149;28;20052;-63
2021/03/26 10:24:32;;;;;;;3.58;1.70;;;22.20;35.60;;;;;;5098120;28;20395;-62
2021/03/26 10:27:25;;;;;;;3.08;1.63;;;22.20;35.60;;;;;;5097332;28;20034;-61
2021/03/26 10:30:17;;;;;;;3.47;1.85;;;22.20;35.60;;;;;;5097150;28;20036;-62
2021/03/26 10:32:43;;;;;;;3.92;1.80;;;22.20;35.60;;;;;;5096174;28;20121;-61
2021/03/26 10:35:20;;;;;;;3.22;1.73;;;22.20;35.60;;;;;;5096571;28;20491;-61
2021/03/26 10:38:11;;;;;;;3.40;1.48;;;22.20;35.50;;;;;;5096143;28;20032;-62
2021/03/26 10:41:15;;;;;;;3.67;1.95;;;22.30;35.50;;;;;;5096940;28;20028;-62
2021/03/26 10:43:49;;;;;;;3.55;1.48;;;22.30;35.50;;;;;;5033734;28;20044;-62
2021/03/26 10:46:31;;;;;;;3.40;1.70;;;22.30;35.40;;;;;;5088308;28;20035;-62
2021/03/26 10:49:04;;;;;;;2.92;1.52;;;22.40;35.30;;;;;;5096775;28;20043;-62
2021/03/26 10:51:43;;;;;;;4.30;1.70;;;22.40;35.30;;;;;;5102601;28;20012;-62
2021/03/26 10:54:29;;;;;;;3.00;1.73;;;22.40;35.20;;;;;;5104286;28;20040;-61
2021/03/26 10:57:18;;;;;;;3.25;1.60;;;22.50;35.20;;;;;;5096656;28;20347;-62
2021/03/26 10:59:52;;;;;;;4.13;1.75;;;22.50;35.20;;;;;;5096613;28;20025;-61
2021/03/26 11:02:27;;;;;;;3.95;1.73;;;22.50;35.20;;;;;;5094175;28;20016;-61
2021/03/26 11:05:13;;;;;;;3.65;1.63;;;22.50;35.10;;;;;;5095644;28;20047;-61
2021/03/26 11:07:44;;;;;;;3.97;1.70;;;22.50;35.10;;;;;;5095341;28;20034;-61
2021/03/26 11:10:17;;;;;;;2.95;1.50;;;22.50;35.00;;;;;;5095839;28;20020;-62
2021/03/26 11:12:51;;;;;;;5.03;2.00;;;22.50;35.10;;;;;;5095754;28;20084;-62
2021/03/26 11:15:27;;;;;;;3.63;1.90;;;22.50;35.20;;;;;;5095657;28;20032;-62
2021/03/26 11:18:14;;;;;;;2.75;1.60;;;22.50;35.20;;;;;;5096635;28;20086;-61
2021/03/26 11:20:42;;;;;;;3.50;1.98;;;22.50;35.20;;;;;;5099403;28;20043;-62
2021/03/26 11:23:17;;;;;;;6.88;2.30;;;22.50;35.10;;;;;;5101262;28;20028;-62
2021/03/26 11:25:49;;;;;;;3.85;1.50;;;22.50;35.10;;;;;;5099253;28;20028;-62
2021/03/26 11:28:27;;;;;;;3.28;1.60;;;22.60;35.10;;;;;;5099124;28;20258;-62
2021/03/26 11:31:10;;;;;;;5.22;2.25;;;22.50;35.10;;;;;;5095418;28;20073;-62
2021/03/26 11:34:21;;;;;;;4.82;2.25;;;22.50;35.20;;;;;;5095175;28;20016;-62
2021/03/26 11:36:46;;;;;;;4.18;1.92;;;22.50;35.20;;;;;;5032362;28;20071;-62
2021/03/26 11:39:11;;;;;;;4.45;1.83;;;22.50;35.20;;;;;;5032479;28;20183;-62
2021/03/26 11:41:54;;;;;;;3.42;1.77;;;22.50;35.20;;;;;;5060919;28;20032;-62
2021/03/26 11:44:23;;;;;;;4.53;1.77;;;22.50;35.10;;;;;;5094768;28;20484;-62
2021/03/26 11:46:55;;;;;;;3.88;1.88;;;22.50;35.10;;;;;;5094613;28;20024;-62
2021/03/26 11:49:30;;;;;;;3.85;1.80;;;22.60;35.00;;;;;;5094672;28;20035;-62
2021/03/26 11:52:03;;;;;;;4.10;2.00;;;22.70;34.90;;;;;;5093311;28;20024;-62
2021/03/26 11:54:54;;;;;;;3.97;1.88;;;22.70;34.80;;;;;;5077279;28;20031;-65
2021/03/26 11:57:41;;;;;;;5.18;2.15;;;22.90;34.60;;;;;;5078341;28;20021;-61
2021/03/26 12:00:21;;;;;;;3.95;1.70;;;23.00;34.50;;;;;;5109048;28;20108;-61
2021/03/26 12:02:49;;;;;;;5.90;2.10;;;23.00;34.50;;;;;;5073595;28;20329;-62
2021/03/26 12:05:52;;;;;;;5.45;2.60;;;23.00;34.50;;;;;;5073034;28;20501;-62
2021/03/26 12:08:27;;;;;;;4.85;1.80;;;23.00;34.50;;;;;;5073119;28;20023;-63
2021/03/26 12:11:17;;;;;;;3.67;1.63;;;22.90;34.70;;;;;;5086277;28;20024;-62
2021/03/26 12:13:51;;;;;;;3.38;1.60;;;22.80;34.70;;;;;;5073873;28;20048;-62
2021/03/26 12:16:28;;;;;;;4.25;1.70;;;22.70;34.90;;;;;;5073316;28;20025;-62
2021/03/26 12:19:17;;;;;;;4.63;1.92;;;22.70;35.00;;;;;;5073514;28;20088;-62
2021/03/26 12:22:02;;;;;;;4.97;2.00;;;22.60;35.10;;;;;;5101800;27;20473;-61
2021/03/26 12:24:39;;;;;;;4.82;2.10;;;22.50;35.20;;;;;;5109663;28;20461;-61
2021/03/26 12:27:12;;;;;;;4.75;2.38;;;22.60;35.20;;;;;;5109204;28;20063;-62
2021/03/26 12:29:47;;;;;;;3.25;1.55;;;22.50;35.20;;;;;;5085316;28;20392;-62
2021/03/26 12:32:28;;;;;;;3.75;1.80;;;22.70;35.00;;;;;;5102502;28;20111;-61
2021/03/26 12:35:16;;;;;;;4.57;2.10;;;22.70;35.10;;;;;;5103701;28;20023;-61
2021/03/26 12:37:57;;;;;;;5.05;2.10;;;22.50;35.20;;;;;;5087640;28;20109;-61
2021/03/26 12:40:41;;;;;;;5.53;1.77;;;22.60;35.10;;;;;;5088724;28;20044;-62
2021/03/26 12:43:22;;;;;;;4.20;2.03;;;22.70;35.00;;;;;;5089191;28;20024;-61
2021/03/26 12:46:21;;;;;;;4.50;2.08;;;22.60;35.10;;;;;;5107123;28;20490;-61
2021/03/26 12:48:53;;;;;;;4.13;1.83;;;22.60;35.20;;;;;;5109438;28;20089;-61
2021/03/26 12:51:38;;;;;;;4.20;2.08;;;22.50;35.20;;;;;;5077552;28;20020;-61
2021/03/26 12:54:27;;;;;;;3.88;2.00;;;22.50;35.20;;;;;;5088874;28;20032;-61
2021/03/26 12:57:04;;;;;;;4.55;1.58;;;22.50;35.30;;;;;;5086540;28;20045;-60
2021/03/26 12:59:38;;;;;;;4.55;1.98;;;22.50;35.30;;;;;;5088467;28;20044;-61
2021/03/26 13:02:35;;;;;;;5.20;2.17;;;22.50;35.20;;;;;;5087640;28;20032;-61
2021/03/26 13:05:08;;;;;;;5.10;1.90;;;22.50;35.20;;;;;;5088514;28;20028;-62
2021/03/26 13:07:58;;;;;;;4.28;1.90;;;22.40;35.30;;;;;;5088762;28;20032;-62
2021/03/26 13:10:52;;;;;;;3.83;1.73;;;22.30;35.40;;;;;;5088600;28;20036;-62
2021/03/26 13:13:33;;;;;;;5.28;1.50;;;22.40;35.30;;;;;;5088335;28;20451;-62
2021/03/26 13:16:04;;;;;;;5.47;1.88;;;22.50;35.20;;;;;;5088352;28;20127;-63
2021/03/26 13:18:29;;;;;;;3.80;1.73;;;22.40;35.30;;;;;;5088189;28;20024;-62
2021/03/26 13:21:26;;;;;;;5.20;1.92;;;22.40;35.30;;;;;;5087828;28;20095;-62
2021/03/26 13:23:55;;;;;;;4.47;1.92;;;22.30;35.40;;;;;;5088398;28;20108;-62
2021/03/26 13:26:26;;;;;;;3.97;1.77;;;22.30;35.40;;;;;;5088317;28;20545;-61
2021/03/26 13:28:59;;;;;;;6.65;2.03;;;22.30;35.40;;;;;;5087616;28;20085;-61
2021/03/26 13:31:37;;;;;;;4.25;1.88;;;22.20;35.40;;;;;;5082907;28;20418;-61
2021/03/26 13:34:03;;;;;;;3.35;1.58;;;22.20;35.60;;;;;;5074617;28;20032;-61
2021/03/26 13:36:37;;;;;;;6.82;2.28;;;22.10;35.60;;;;;;5074056;28;20388;-61
2021/03/26 13:39:17;;;;;;;3.80;1.70;;;22.10;35.70;;;;;;5074550;28;20090;-61
2021/03/26 13:41:42;;;;;;;3.88;2.08;;;22.00;35.80;;;;;;5074091;28;20139;-61
2021/03/26 13:44:14;;;;;;;4.68;1.90;;;22.00;35.80;;;;;;5074548;28;20417;-60
2021/03/26 13:46:43;;;;;;;3.92;1.80;;;22.00;35.80;;;;;;5074419;28;20028;-60